CheckWX is a tool to help pilots better visualize weather data.  It is not intended as a substitute for an official pre-flight weather briefing.

21:37:06 UTC

VOCI TAF
Cochin International Airport
Cochin, India
TAF VOCI 202000Z 2021/2106 VRB05KT 4000 HZ FEW015 BECMG 2100/2103 07005KT 3000 HZ BECMG 2104/2106 28010KT 6000

Mar-20@
21:00 UTC

Mar-20 @ 21:00 UTC

Mar-21@
00:00 UTC

Mar-21 @ 00:00 UTC

TAF VOCI 202000Z 2021/2106 VRB05KT 4000 HZ FEW015
Wind
  • Variable at 5 KTS
Conditions
Haze
Cloud Levels
  • Few at 1,500' AGL

Mar-21@
00:00 UTC

Mar-21 @ 00:00 UTC

Mar-21@
04:00 UTC

Mar-21 @ 04:00 UTC

BECMG 2100/2103 07005KT 3000 HZ

Becoming

Becoming Conditions expected by Thu, Mar 21, 2019 @ 03:00 UTC

Wind
  • 070° at 5 KTS
Conditions
Haze
Cloud Levels
  • Few at 1,500' AGL

Mar-21@
04:00 UTC

Mar-21 @ 04:00 UTC

Mar-21@
06:00 UTC

Mar-21 @ 06:00 UTC

BECMG 2104/2106 28010KT 6000

Becoming

Becoming Conditions expected by Thu, Mar 21, 2019 @ 06:00 UTC

Wind
  • 280° at 10 KTS
Conditions
Haze
Cloud Levels
  • Few at 1,500' AGL